Time;durP1;ratioP1;P1;durP2;ratioP2;P2;SDS_P1;SDS_P2;PMS_P1;PMS_P2;Temp;Humidity;BMP_temperature;BMP_pressure;BME280_temperature;BME280_humidity;BME280_pressure;Samples;Min_cycle;Max_cycle;Signal;HPM_P1;HPM_P2
2022/02/02 00:04:12;;;;;;;8.50;5.70;;;;;;;4.99;94.95;100377.78;5040672;28;20440;-80
2022/02/02 00:06:45;;;;;;;6.82;5.80;;;;;;;5.01;95.03;100381.88;5039816;28;20394;-80
2022/02/02 00:09:15;;;;;;;10.73;7.25;;;;;;;5.03;94.46;100369.09;5038030;28;20402;-79
2022/02/02 00:14:31;;;;;;;13.23;7.72;;;;;;;5.07;95.07;100370.31;5031627;28;20391;-79
2022/02/02 00:17:03;;;;;;;11.50;7.53;;;;;;;5.12;94.48;100378.56;5030556;28;20415;-80
2022/02/02 00:19:40;;;;;;;13.30;7.55;;;;;;;5.13;94.59;100382.91;5030591;28;20414;-81
2022/02/02 00:22:16;;;;;;;10.38;7.53;;;;;;;5.12;94.52;100385.78;5055835;28;20894;-80
2022/02/02 00:27:16;;;;;;;9.77;7.65;;;;;;;5.14;94.78;100376.47;5040106;28;20407;-81
2022/02/02 00:29:47;;;;;;;11.47;8.03;;;;;;;5.15;94.82;100383.50;5039340;28;20390;-81
2022/02/02 00:32:34;;;;;;;12.73;7.28;;;;;;;5.18;95.05;100385.78;5038768;28;20429;-80
2022/02/02 00:35:00;;;;;;;12.43;8.00;;;;;;;5.23;94.99;100377.91;5041090;28;20952;-80
2022/02/02 00:37:26;;;;;;;10.97;8.23;;;;;;;5.24;95.15;100360.75;5035490;28;20490;-81
2022/02/02 00:39:51;;;;;;;11.77;8.33;;;;;;;5.24;94.56;100357.22;5031554;28;20418;-80
2022/02/02 00:42:17;;;;;;;15.37;7.93;;;;;;;5.16;94.72;100357.47;5048575;28;20423;-80
2022/02/02 00:44:46;;;;;;;13.00;8.83;;;;;;;5.05;94.31;100356.28;5044554;28;21003;-81
2022/02/02 00:47:19;;;;;;;12.13;8.93;;;;;;;5.01;94.80;100356.88;5037432;28;20792;-81
2022/02/02 00:49:46;;;;;;;12.45;8.73;;;;;;;5.01;94.99;100354.22;5040043;28;20387;-81
2022/02/02 00:52:12;;;;;;;12.15;8.45;;;;;;;5.06;95.24;100352.56;5041328;28;20542;-81
2022/02/02 00:54:37;;;;;;;15.55;8.80;;;;;;;5.10;95.17;100347.59;5036000;28;20484;-81
2022/02/02 00:57:02;;;;;;;16.03;8.83;;;;;;;5.09;94.65;100365.56;5044366;28;20400;-81
2022/02/02 00:59:28;;;;;;;14.07;8.77;;;;;;;5.08;94.92;100373.81;5040890;28;20913;-81
2022/02/02 01:01:53;;;;;;;15.38;8.05;;;;;;;5.03;94.40;100362.91;5015159;28;20422;-81
2022/02/02 01:04:19;;;;;;;13.40;7.97;;;;;;;4.99;94.29;100351.75;5035903;28;20407;-81
2022/02/02 01:06:56;;;;;;;14.23;9.10;;;;;;;4.94;94.72;100359.59;5049760;28;20399;-81
2022/02/02 01:12:20;;;;;;;15.80;9.93;;;;;;;5.02;95.13;100372.81;5048667;28;20437;-81
2022/02/02 01:18:09;;;;;;;19.38;10.52;;;;;;;5.14;95.14;100389.91;5046413;28;20910;-81
2022/02/02 01:20:36;;;;;;;18.83;11.25;;;;;;;5.18;95.14;100385.78;5052984;28;20428;-81
2022/02/02 01:28:32;;;;;;;23.38;12.35;;;;;;;5.25;94.88;100385.75;5036343;28;20430;-81
2022/02/02 01:30:59;;;;;;;20.67;12.38;;;;;;;5.25;94.59;100393.81;5034294;28;20407;-81
2022/02/02 01:33:24;;;;;;;17.97;11.20;;;;;;;5.23;94.95;100390.53;5038154;28;20847;-82
2022/02/02 01:35:50;;;;;;;17.57;10.93;;;;;;;5.23;94.79;100385.97;5048818;28;20474;-81
2022/02/02 01:38:16;;;;;;;17.87;11.33;;;;;;;5.26;95.01;100376.66;5036089;28;20398;-81
2022/02/02 01:40:47;;;;;;;18.70;12.83;;;;;;;5.31;94.88;100392.13;5044226;28;20389;-81
2022/02/02 01:43:18;;;;;;;21.77;12.50;;;;;;;5.34;94.69;100399.75;5049907;28;20445;-82
2022/02/02 01:45:48;;;;;;;23.55;12.15;;;;;;;5.39;94.80;100394.59;5035889;28;20465;-82
2022/02/02 01:51:10;;;;;;;22.37;12.30;;;;;;;5.42;94.60;100388.78;5034580;28;20441;-81
2022/02/02 01:56:08;;;;;;;23.33;12.25;;;;;;;5.46;94.35;100387.34;5046702;28;20889;-81
2022/02/02 02:01:07;;;;;;;28.92;12.52;;;;;;;5.43;94.69;100385.91;5046308;28;20803;-85
2022/02/02 02:03:32;;;;;;;26.27;12.65;;;;;;;5.51;94.87;100387.50;5052604;28;20393;-82
2022/02/02 02:05:58;;;;;;;21.70;12.20;;;;;;;5.56;94.73;100393.91;5047035;28;20453;-82
2022/02/02 02:08:24;;;;;;;24.33;12.33;;;;;;;5.62;94.87;100389.53;5042951;28;20428;-82
2022/02/02 02:10:49;;;;;;;30.08;12.27;;;;;;;5.64;94.56;100380.22;5039705;28;20822;-82
2022/02/02 02:13:40;;;;;;;27.93;11.87;;;;;;;5.63;94.02;100389.31;5035254;28;20384;-82
2022/02/02 02:16:04;;;;;;;25.50;11.50;;;;;;;5.67;94.51;100395.06;5041556;28;20404;-82
2022/02/02 02:18:29;;;;;;;26.60;11.50;;;;;;;5.69;94.46;100390.31;5030723;28;20403;-82
2022/02/02 02:20:57;;;;;;;20.23;10.27;;;;;;;5.67;94.60;100390.53;5032899;28;20395;-82
2022/02/02 02:23:24;;;;;;;23.70;10.55;;;;;;;5.72;94.85;100397.97;5038212;28;20404;-82
2022/02/02 02:25:50;;;;;;;24.33;11.00;;;;;;;5.73;94.29;100396.91;5048822;28;20768;-82
2022/02/02 02:31:06;;;;;;;23.92;11.00;;;;;;;5.75;94.11;100408.28;5037952;28;20418;-82
2022/02/02 02:34:01;;;;;;;22.75;11.73;;;;;;;5.80;94.66;100408.47;5041007;28;20795;-83
2022/02/02 02:36:55;;;;;;;25.92;12.63;;;;;;;5.86;94.47;100404.13;5038629;28;20391;-82
2022/02/02 02:55:54;;;;;;;27.45;10.25;;;;;;;5.94;94.35;100393.09;5033390;28;20862;-82
2022/02/02 03:30:52;;;;;;;22.48;8.30;;;;;;;6.12;93.55;100398.59;5040562;28;20511;-82
2022/02/02 03:50:11;;;;;;;22.92;9.38;;;;;;;6.31;93.28;100403.00;5034377;28;20590;-82
2022/02/02 03:57:38;;;;;;;22.30;6.63;;;;;;;6.43;92.47;100427.34;5040638;28;20441;-82
2022/02/02 04:00:21;;;;;;;19.08;6.70;;;;;;;6.47;93.23;100421.31;5044719;28;20406;-82
2022/02/02 04:03:08;;;;;;;16.30;6.00;;;;;;;6.54;91.79;100423.94;5040455;28;20409;-82
2022/02/02 04:05:40;;;;;;;15.95;5.75;;;;;;;6.52;91.83;100434.13;5047639;28;20425;-82
2022/02/02 04:10:40;;;;;;;17.42;5.72;;;;;;;6.44;91.84;100437.91;5031818;28;20790;-82
2022/02/02 04:13:12;;;;;;;14.67;5.10;;;;;;;6.44;92.20;100451.34;5044767;28;20407;-82
2022/02/02 04:37:34;;;;;;;17.25;5.85;;;;;;;6.35;92.07;100444.59;5031803;28;20869;-82
2022/02/02 04:57:26;;;;;;;18.17;5.97;;;;;;;6.38;91.29;100473.75;5033389;28;20425;-82
2022/02/02 04:59:58;;;;;;;19.40;5.30;;;;;;;6.38;90.65;100471.06;5042963;28;20512;-82
2022/02/02 05:05:38;;;;;;;23.92;7.97;;;;;;;6.30;90.86;100465.09;5047380;28;20469;-82
2022/02/02 05:08:21;;;;;;;17.75;6.63;;;;;;;6.23;90.80;100463.28;5041743;28;20780;-82
2022/02/02 05:43:30;;;;;;;17.75;5.85;;;;;;;6.64;90.16;100508.59;5011232;28;20453;-83
2022/02/02 05:48:40;;;;;;;17.17;5.43;;;;;;;6.65;90.24;100502.13;5027971;28;20879;-82
2022/02/02 05:53:37;;;;;;;21.55;5.82;;;;;;;6.72;90.29;100513.69;5020575;28;20404;-84
2022/02/02 05:56:04;;;;;;;20.08;6.13;;;;;;;6.73;89.85;100504.56;5024648;28;20827;-84
2022/02/02 05:58:33;;;;;;;18.50;5.47;;;;;;;6.75;90.27;100505.16;5017472;28;20397;-84
2022/02/02 06:01:00;;;;;;;19.38;5.63;;;;;;;6.76;90.05;100512.22;5018938;28;20425;-83
2022/02/02 06:03:45;;;;;;;23.35;7.28;;;;;;;6.77;90.16;100510.34;5013902;28;20922;-83
2022/02/02 06:06:11;;;;;;;24.67;5.97;;;;;;;6.81;90.02;100519.66;5026342;28;20453;-84
2022/02/02 06:08:43;;;;;;;22.42;5.65;;;;;;;6.86;89.45;100524.38;5021927;28;20401;-81
2022/02/02 06:11:17;;;;;;;22.65;5.05;;;;;;;6.87;88.52;100528.72;5018950;28;20408;-81
2022/02/02 06:13:50;;;;;;;20.63;5.38;;;;;;;6.84;88.05;100521.91;5024812;28;20427;-81
2022/02/02 06:16:15;;;;;;;20.70;5.30;;;;;;;6.85;88.54;100531.59;5040490;28;20457;-82
2022/02/02 06:18:41;;;;;;;21.43;6.63;;;;;;;6.78;88.30;100515.50;5029039;28;20465;-83
2022/02/02 06:21:09;;;;;;;20.77;6.40;;;;;;;6.71;88.58;100533.59;5014284;28;20411;-83
2022/02/02 06:23:53;;;;;;;29.60;7.97;;;;;;;6.67;89.13;100531.56;5016658;28;20573;-82
2022/02/02 06:26:23;;;;;;;23.83;7.05;;;;;;;6.59;89.47;100516.47;5026666;28;20399;-83
2022/02/02 06:28:51;;;;;;;27.05;6.78;;;;;;;6.55;89.86;100522.53;5016663;28;20440;-83
2022/02/02 06:31:19;;;;;;;26.58;6.10;;;;;;;6.54;89.87;100534.34;5018893;28;20976;-83
2022/02/02 06:33:51;;;;;;;25.02;6.70;;;;;;;6.55;90.33;100525.22;5012975;28;20420;-81
2022/02/02 06:36:16;;;;;;;32.63;7.20;;;;;;;6.54;90.21;100528.94;5018441;28;20475;-86
2022/02/02 06:38:42;;;;;;;21.57;5.43;;;;;;;6.53;90.73;100533.50;5026422;28;20539;-82
2022/02/02 06:41:08;;;;;;;24.63;6.45;;;;;;;6.54;90.44;100537.84;5027356;28;20910;-82
2022/02/02 06:43:36;;;;;;;26.40;6.43;;;;;;;6.53;90.69;100544.28;5023769;28;21416;-81
2022/02/02 06:46:03;;;;;;;20.00;6.45;;;;;;;6.54;90.38;100551.31;5012866;28;20504;-81
2022/02/02 06:48:31;;;;;;;23.38;7.10;;;;;;;6.55;90.18;100555.63;5011598;28;20412;-81
2022/02/02 06:51:10;;;;;;;29.63;8.10;;;;;;;6.61;90.48;100559.34;5017083;28;22026;-80
2022/02/02 06:53:58;;;;;;;27.40;7.28;;;;;;;6.64;90.18;100561.59;5014957;28;20393;-80
2022/02/02 07:07:26;;;;;;;25.23;6.73;;;;;;;6.78;89.42;100596.31;5022755;28;20406;-81
2022/02/02 07:13:08;;;;;;;19.30;5.03;;;;;;;6.87;89.54;100614.91;5029013;28;20440;-81
2022/02/02 07:21:19;;;;;;;29.13;7.10;;;;;;;6.87;88.93;100610.34;5013834;28;20412;-81
2022/02/02 07:31:47;;;;;;;22.17;6.65;;;;;;;6.82;89.26;100609.38;5027523;28;20407;-81
2022/02/02 07:34:59;;;;;;;20.38;5.50;;;;;;;6.78;89.40;100607.06;5026607;28;20447;-81
2022/02/02 07:37:32;;;;;;;22.67;5.35;;;;;;;6.83;89.90;100613.69;5011949;28;20413;-81
2022/02/02 07:40:02;;;;;;;18.38;5.35;;;;;;;6.84;90.11;100599.19;5012240;28;20393;-81
2022/02/02 07:42:28;;;;;;;18.10;5.70;;;;;;;6.90;89.47;100598.31;5035177;28;20465;-81
2022/02/02 07:45:04;;;;;;;22.00;6.07;;;;;;;6.92;89.31;100610.53;5020019;28;20433;-81
2022/02/02 07:47:32;;;;;;;22.00;5.97;;;;;;;6.94;89.62;100610.31;5012411;28;20487;-81
2022/02/02 07:50:01;;;;;;;15.75;5.28;;;;;;;6.97;89.07;100626.88;5017735;28;20901;-81
2022/02/02 07:52:29;;;;;;;21.10;5.68;;;;;;;6.97;88.99;100621.47;5026458;28;20815;-81
2022/02/02 07:54:57;;;;;;;24.10;5.45;;;;;;;6.98;88.97;100628.50;5000603;28;20877;-81
2022/02/02 07:57:27;;;;;;;20.67;5.63;;;;;;;7.01;88.74;100621.88;5016270;28;20416;-82
2022/02/02 07:59:56;;;;;;;22.00;5.90;;;;;;;7.04;88.96;100614.19;5012920;28;20415;-81
2022/02/02 08:02:30;;;;;;;20.27;5.70;;;;;;;7.06;88.89;100630.94;5022539;28;20387;-81
2022/02/02 08:04:55;;;;;;;21.23;6.70;;;;;;;7.04;88.97;100621.44;5016682;28;20408;-81
2022/02/02 08:07:27;;;;;;;23.83;6.80;;;;;;;7.06;88.40;100622.03;5017795;28;20416;-82
2022/02/02 08:10:06;;;;;;;25.33;7.05;;;;;;;7.10;87.76;100634.03;5012473;28;20396;-81
2022/02/02 08:12:48;;;;;;;23.90;5.85;;;;;;;7.12;87.82;100657.03;5016793;28;20408;-81
2022/02/02 08:15:15;;;;;;;19.90;5.80;;;;;;;7.17;87.18;100648.31;5028044;28;20858;-81
2022/02/02 08:17:42;;;;;;;23.57;6.53;;;;;;;7.17;87.41;100645.59;5015860;28;20403;-81
2022/02/02 08:20:07;;;;;;;22.40;6.22;;;;;;;7.19;87.82;100632.72;5020610;28;20409;-81
2022/02/02 08:22:33;;;;;;;25.10;6.13;;;;;;;7.25;87.72;100662.31;5012142;28;20389;-83
2022/02/02 08:24:59;;;;;;;22.10;5.67;;;;;;;7.27;87.20;100657.56;5026645;28;20399;-81
2022/02/02 08:27:24;;;;;;;17.13;4.93;;;;;;;7.28;87.00;100652.97;5026695;28;20810;-82
2022/02/02 08:29:49;;;;;;;19.88;5.32;;;;;;;7.28;86.88;100661.88;5020535;28;20448;-81
2022/02/02 08:32:15;;;;;;;24.47;7.23;;;;;;;7.30;87.13;100672.47;5011711;28;20423;-81
2022/02/02 08:34:48;;;;;;;22.30;6.85;;;;;;;7.28;86.96;100666.44;5012147;28;20400;-81
2022/02/02 08:37:14;;;;;;;21.08;5.72;;;;;;;7.30;87.23;100657.13;5012047;28;20780;-81
2022/02/02 08:39:57;;;;;;;19.88;5.93;;;;;;;7.33;86.88;100661.25;5011731;28;20657;-81
2022/02/02 08:42:25;;;;;;;19.80;5.93;;;;;;;7.37;87.01;100658.94;5010267;28;20447;-81
2022/02/02 08:45:11;;;;;;;18.67;6.35;;;;;;;7.36;86.60;100654.59;5010867;28;20408;-81
2022/02/02 08:47:36;;;;;;;24.45;5.97;;;;;;;7.36;87.21;100649.19;5011686;28;20420;-82
2022/02/02 08:50:03;;;;;;;20.13;5.27;;;;;;;7.36;86.95;100654.59;5011687;28;20405;-81
2022/02/02 08:52:40;;;;;;;22.25;5.38;;;;;;;7.42;87.34;100654.53;5013792;28;20408;-81
2022/02/02 08:55:07;;;;;;;19.30;5.00;;;;;;;7.46;87.04;100654.91;5023860;28;20388;-81
2022/02/02 09:00:10;;;;;;;19.27;4.70;;;;;;;7.49;86.88;100651.78;5031033;28;20499;-82
2022/02/02 09:02:38;;;;;;;19.75;4.40;;;;;;;7.53;86.23;100651.13;5016010;28;20870;-81
2022/02/02 09:05:25;;;;;;;18.95;5.10;;;;;;;7.58;86.98;100656.69;5028955;28;20754;-82
2022/02/02 09:07:50;;;;;;;18.80;4.80;;;;;;;7.60;86.55;100670.78;5024000;28;20918;-81
2022/02/02 09:10:24;;;;;;;17.23;4.63;;;;;;;7.65;86.29;100668.25;5011351;28;20448;-81
2022/02/02 09:24:02;;;;;;;21.27;5.07;;;;;;;7.95;85.48;100689.97;5012713;28;20758;-81
2022/02/02 09:32:38;;;;;;;18.52;5.88;;;;;;;8.05;84.41;100700.25;5013574;28;20467;-81
2022/02/02 09:35:03;;;;;;;14.73;4.85;;;;;;;8.11;84.36;100710.16;5033770;28;20461;-81
2022/02/02 09:37:29;;;;;;;20.00;5.70;;;;;;;8.17;83.99;100714.66;5033781;28;20866;-82
2022/02/02 09:42:43;;;;;;;14.98;4.65;;;;;;;8.19;83.90;100723.38;5035883;28;20467;-81
2022/02/02 09:45:13;;;;;;;16.83;5.13;;;;;;;8.23;83.74;100721.91;5015002;28;20405;-81
2022/02/02 09:47:46;;;;;;;22.03;5.10;;;;;;;8.18;83.52;100727.13;5017607;28;20875;-81
2022/02/02 09:50:29;;;;;;;18.05;5.10;;;;;;;8.18;83.35;100724.41;5018415;28;20403;-81
2022/02/02 09:52:58;;;;;;;19.98;5.57;;;;;;;8.19;83.16;100739.56;5027977;28;20417;-81
2022/02/02 10:01:18;;;;;;;20.85;5.88;;;;;;;8.28;82.68;100759.88;5014504;28;20480;-81
2022/02/02 10:14:17;;;;;;;23.27;6.30;;;;;;;8.40;81.49;100782.38;5014372;28;20408;-81
2022/02/02 10:16:45;;;;;;;18.70;5.05;;;;;;;8.35;81.77;100776.84;5019647;28;20413;-81
2022/02/02 10:19:15;;;;;;;21.90;6.43;;;;;;;8.35;81.88;100784.94;5017591;28;20386;-81
2022/02/02 10:21:40;;;;;;;20.67;7.65;;;;;;;8.26;82.03;100787.06;5017287;28;20785;-81
2022/02/02 10:24:06;;;;;;;21.20;6.00;;;;;;;8.30;81.56;100788.28;5025624;28;20438;-81
2022/02/02 10:26:31;;;;;;;19.20;6.30;;;;;;;8.29;81.72;100785.84;5018160;28;20934;-82
2022/02/02 10:29:07;;;;;;;21.60;6.60;;;;;;;8.30;81.32;100782.06;5013022;28;20492;-81
2022/02/02 10:31:40;;;;;;;22.13;4.82;;;;;;;8.34;81.41;100777.88;5021951;28;20418;-82
2022/02/02 10:34:12;;;;;;;21.50;5.50;;;;;;;8.39;81.10;100788.84;5019781;28;20397;-81
2022/02/02 10:36:38;;;;;;;19.10;5.65;;;;;;;8.57;80.47;100790.72;5016280;28;20415;-82
2022/02/02 10:39:13;;;;;;;21.93;5.20;;;;;;;8.75;79.56;100790.75;5013634;28;20404;-82
2022/02/02 10:41:49;;;;;;;17.50;5.93;;;;;;;8.86;79.25;100801.63;5022175;28;20407;-82
2022/02/02 10:44:22;;;;;;;23.52;6.35;;;;;;;8.82;78.48;100789.63;5029102;28;20890;-83
2022/02/02 10:47:15;;;;;;;24.67;7.57;;;;;;;8.74;78.43;100800.75;5014587;28;20424;-82
2022/02/02 10:50:05;;;;;;;27.23;7.03;;;;;;;8.77;78.73;100802.16;5022155;28;20407;-82
2022/02/02 10:52:57;;;;;;;25.33;7.00;;;;;;;8.78;77.93;100799.25;5028110;28;20498;-82
2022/02/02 11:08:53;;;;;;;20.90;5.90;;;;;;;9.45;74.31;100794.66;5023213;28;20716;-83
2022/02/02 11:11:18;;;;;;;22.25;6.88;;;;;;;9.53;74.29;100788.94;5025081;28;20403;-82
2022/02/02 11:13:46;;;;;;;19.47;5.60;;;;;;;9.54;73.49;100789.75;5017575;28;20899;-83
2022/02/02 11:16:24;;;;;;;18.70;5.45;;;;;;;9.71;73.22;100780.75;5029270;28;20404;-82
2022/02/02 11:18:50;;;;;;;20.70;5.43;;;;;;;9.53;73.51;100777.28;5014432;28;20413;-83
2022/02/02 11:21:15;;;;;;;18.10;4.28;;;;;;;9.40;74.02;100775.59;5012793;28;20393;-83
2022/02/02 11:23:46;;;;;;;18.17;4.30;;;;;;;9.49;74.23;100779.59;5025083;28;20427;-83
2022/02/02 11:26:13;;;;;;;18.15;4.82;;;;;;;9.63;74.44;100782.97;5012463;28;20467;-82
2022/02/02 11:28:39;;;;;;;15.80;4.15;;;;;;;9.76;73.66;100789.00;5021200;28;20398;-82
2022/02/02 11:31:17;;;;;;;16.13;4.65;;;;;;;9.78;73.37;100781.47;5021395;28;20897;-82
2022/02/02 11:33:53;;;;;;;22.95;6.40;;;;;;;9.72;73.87;100787.81;5013481;28;20416;-82
2022/02/02 11:36:25;;;;;;;21.92;5.72;;;;;;;9.70;73.61;100778.28;5019929;28;20423;-81
2022/02/02 11:38:54;;;;;;;19.08;5.22;;;;;;;9.67;73.99;100767.91;5019476;28;20424;-82
2022/02/02 11:41:40;;;;;;;17.08;4.97;;;;;;;9.89;72.92;100769.84;5020728;28;21158;-82
2022/02/02 11:47:07;;;;;;;17.90;4.68;;;;;;;10.10;72.19;100768.47;5012333;28;20956;-84
2022/02/02 11:49:54;;;;;;;20.42;5.03;;;;;;;10.02;72.49;100763.38;5028117;28;20384;-84
2022/02/02 11:52:35;;;;;;;17.10;4.57;;;;;;;9.88;73.81;100767.34;5011780;28;20424;-82
2022/02/02 11:55:01;;;;;;;13.35;3.70;;;;;;;9.78;74.34;100764.44;5011016;28;20413;-82
2022/02/02 11:57:36;;;;;;;14.05;3.88;;;;;;;9.74;74.90;100765.94;5016961;28;20388;-83
2022/02/02 12:00:50;;;;;;;17.02;4.72;;;;;;;9.61;74.98;100764.25;5013469;28;20401;-83
2022/02/02 12:56:57;;;;;;;10.00;3.42;;;;;;;9.89;74.95;100832.09;5021480;28;20751;-83
2022/02/02 13:02:20;;;;;;;8.80;3.15;;;;;;;9.62;75.78;100835.41;5030291;28;20406;-84
2022/02/02 13:04:53;;;;;;;11.30;3.30;;;;;;;9.48;76.25;100834.78;5019904;28;20415;-85
2022/02/02 13:07:21;;;;;;;12.00;3.88;;;;;;;9.52;76.21;100835.97;5023261;28;20403;-84
2022/02/02 13:09:48;;;;;;;13.95;3.75;;;;;;;9.50;75.96;100838.09;5024932;28;20448;-83
2022/02/02 13:12:27;;;;;;;12.07;4.03;;;;;;;9.47;76.03;100853.94;5027307;28;20426;-85
2022/02/02 13:18:11;;;;;;;13.27;3.60;;;;;;;9.54;75.56;100836.59;5018038;28;20427;-84
2022/02/02 13:20:51;;;;;;;12.82;4.38;;;;;;;9.55;75.70;100853.66;5021645;28;20402;-83
2022/02/02 13:23:26;;;;;;;11.68;3.85;;;;;;;9.61;74.96;100858.13;5025500;28;20395;-84
2022/02/02 13:26:03;;;;;;;13.45;4.07;;;;;;;9.49;74.79;100863.47;5015193;28;20388;-83
2022/02/02 13:28:44;;;;;;;13.10;3.70;;;;;;;9.46;74.94;100863.09;5025770;28;20794;-81
2022/02/02 13:31:29;;;;;;;11.80;3.00;;;;;;;9.40;75.16;100862.16;5023509;28;20414;-83
2022/02/02 13:34:12;;;;;;;6.57;2.55;;;;;;;9.30;75.58;100865.38;5017967;28;20456;-83
2022/02/02 13:36:56;;;;;;;11.03;2.67;;;;;;;9.25;76.18;100859.00;5014734;28;20389;-83
2022/02/02 13:56:19;;;;;;;5.83;3.30;;;;;;;9.13;79.90;100893.25;5020833;28;20516;-84
2022/02/02 14:09:29;;;;;;;10.10;5.03;;;;;;;8.97;82.11;100913.59;5031596;28;20426;-83
2022/02/02 14:31:36;;;;;;;10.15;4.05;;;;;;;9.03;83.54;100933.50;5029824;28;20411;-82
2022/02/02 14:33:45;;;;;;;10.02;4.13;;;;;;;8.97;83.97;100927.09;5025522;28;20407;-83
2022/02/02 14:36:15;;;;;;;10.07;4.10;;;;;;;9.04;83.73;100927.88;5015220;28;20417;-83
2022/02/02 14:38:47;;;;;;;7.85;3.08;;;;;;;9.03;84.03;100922.69;5033991;28;20416;-82
2022/02/02 14:46:15;;;;;;;7.03;3.88;;;;;;;8.93;84.38;100925.06;5022826;28;20412;-83
2022/02/02 14:48:50;;;;;;;7.07;3.10;;;;;;;8.99;83.77;100916.88;5020410;28;20412;-83
2022/02/02 14:53:55;;;;;;;10.65;5.07;;;;;;;8.94;84.04;100924.03;5019200;28;20415;-84
2022/02/02 15:28:11;;;;;;;7.00;3.60;;;;;;;8.76;84.29;100954.53;5018767;28;20408;-84
2022/02/02 15:33:41;;;;;;;11.65;5.78;;;;;;;8.73;84.59;100952.25;5027529;28;20983;-81
2022/02/02 15:38:39;;;;;;;10.98;6.15;;;;;;;8.66;84.81;100962.31;5023276;28;20435;-83
2022/02/02 15:41:16;;;;;;;13.15;5.95;;;;;;;8.62;85.32;100961.94;5023579;28;20456;-82
2022/02/02 15:55:22;;;;;;;12.73;6.95;;;;;;;8.48;85.59;100978.44;5026042;28;20430;-83
2022/02/02 16:03:06;;;;;;;11.75;6.30;;;;;;;8.50;84.97;100968.25;5021136;28;20479;-83
2022/02/02 16:05:47;;;;;;;12.90;7.65;;;;;;;8.51;84.76;100978.00;5017841;28;20415;-84
2022/02/02 16:08:15;;;;;;;19.30;10.25;;;;;;;8.50;84.98;100973.66;5017114;28;20405;-84
2022/02/02 16:14:00;;;;;;;9.27;5.93;;;;;;;8.43;85.40;100987.19;5019915;28;20845;-81
2022/02/02 16:18:50;;;;;;;12.52;6.70;;;;;;;8.44;85.66;101006.94;5019442;28;20398;-81
2022/02/02 16:37:45;;;;;;;5.90;3.13;;;;;;;8.19;87.35;101005.00;5020006;28;20866;-83
2022/02/02 16:40:14;;;;;;;6.70;3.23;;;;;;;8.19;86.89;101005.00;5012977;28;20518;-83
2022/02/02 16:45:23;;;;;;;4.45;2.70;;;;;;;8.15;87.49;101003.75;5015639;28;20424;-83
2022/02/02 16:47:49;;;;;;;8.00;3.60;;;;;;;8.07;88.17;101004.00;5011294;28;20899;-82
2022/02/02 16:50:20;;;;;;;8.30;3.07;;;;;;;8.03;88.03;100992.00;5027308;28;20407;-82
2022/02/02 16:52:49;;;;;;;7.03;3.60;;;;;;;8.02;88.65;100989.50;5008294;28;20431;-82
2022/02/02 16:55:31;;;;;;;7.75;4.80;;;;;;;8.03;88.48;100992.00;5021677;28;20466;-83
2022/02/02 17:30:29;;;;;;;9.65;7.32;;;;;;;7.98;89.50;101020.66;5013929;28;20912;-84
2022/02/02 17:37:54;;;;;;;13.60;9.57;;;;;;;7.97;89.22;101019.00;5013895;28;20440;-84
2022/02/02 17:40:35;;;;;;;10.57;7.90;;;;;;;7.99;89.20;101016.91;5026295;28;20397;-83
2022/02/02 17:43:16;;;;;;;10.37;7.17;;;;;;;7.97;89.81;101019.81;5017226;28;20427;-83
2022/02/02 17:45:55;;;;;;;10.82;8.38;;;;;;;7.97;90.04;101021.72;5022107;28;20790;-84
2022/02/02 17:56:25;;;;;;;27.20;15.40;;;;;;;8.00;90.22;101024.78;5014044;28;20447;-84
2022/02/02 18:00:15;;;;;;;16.35;10.10;;;;;;;7.98;90.49;101031.44;5016368;28;20416;-84
2022/02/02 18:20:58;;;;;;;16.13;11.60;;;;;;;7.75;91.38;101051.66;5019344;28;20445;-84
2022/02/02 18:23:31;;;;;;;14.82;11.65;;;;;;;7.75;91.42;101050.81;5017114;28;21099;-84
2022/02/02 18:26:11;;;;;;;15.15;10.98;;;;;;;7.76;91.48;101055.19;5020129;28;20419;-81
2022/02/02 18:28:48;;;;;;;17.30;12.30;;;;;;;7.76;91.09;101052.50;5017960;28;20509;-81
2022/02/02 18:37:27;;;;;;;16.05;11.80;;;;;;;7.80;91.66;101061.84;5020128;28;20754;-81
2022/02/02 18:51:01;;;;;;;19.30;14.18;;;;;;;7.94;91.47;101066.13;5027544;28;20490;-81
2022/02/02 18:53:52;;;;;;;22.35;16.63;;;;;;;7.96;91.38;101061.38;5020979;28;20403;-81
2022/02/02 18:56:38;;;;;;;23.45;16.83;;;;;;;8.00;91.14;101064.47;5026703;28;20403;-80
2022/02/02 19:01:59;;;;;;;18.52;15.38;;;;;;;8.01;91.63;101072.34;5028156;28;20417;-81
2022/02/02 19:37:41;;;;;;;19.23;14.33;;;;;;;7.96;91.98;101085.66;5020546;28;20438;-80
2022/02/02 19:56:42;;;;;;;27.17;19.88;;;;;;;8.03;92.13;101105.34;5017786;28;20396;-80
2022/02/02 20:11:27;;;;;;;21.55;16.42;;;;;;;8.08;92.41;101092.03;5027836;28;20423;-81
2022/02/02 20:13:52;;;;;;;23.60;17.05;;;;;;;8.05;91.81;101102.44;5021680;28;20743;-80
2022/02/02 20:16:17;;;;;;;21.17;16.80;;;;;;;8.06;92.48;101102.22;5015338;28;20408;-81
2022/02/02 20:18:45;;;;;;;26.43;18.40;;;;;;;8.09;92.28;101104.50;5005596;28;20426;-81
2022/02/02 20:21:12;;;;;;;24.80;18.88;;;;;;;8.11;92.15;101102.41;5022151;28;20419;-81
2022/02/02 20:23:43;;;;;;;22.10;16.85;;;;;;;8.12;92.40;101092.44;5012382;28;20906;-79
2022/02/02 20:26:11;;;;;;;28.40;19.65;;;;;;;8.10;92.45;101084.53;5014354;28;20541;-80
2022/02/02 20:28:37;;;;;;;22.40;17.33;;;;;;;8.12;92.95;101095.13;5015344;28;20714;-80
2022/02/02 20:31:05;;;;;;;24.90;18.43;;;;;;;8.12;92.71;101090.56;5013221;28;20965;-80
2022/02/02 20:33:30;;;;;;;26.52;20.90;;;;;;;8.12;92.65;101095.13;5012332;28;20401;-82
2022/02/02 20:35:55;;;;;;;36.58;23.73;;;;;;;8.10;92.44;101095.34;5014551;28;20483;-81
2022/02/02 20:38:21;;;;;;;29.93;23.23;;;;;;;8.10;92.72;101089.13;5013518;28;20861;-81
2022/02/02 20:40:47;;;;;;;30.00;22.33;;;;;;;8.10;92.79;101079.13;5015086;28;20445;-83
2022/02/02 20:43:24;;;;;;;28.80;21.63;;;;;;;8.08;92.81;101086.63;5012273;28;20946;-81
2022/02/02 21:04:49;;;;;;;22.42;17.38;;;;;;;8.10;92.72;101095.34;5010007;28;20413;-81
2022/02/02 21:15:22;;;;;;;24.25;17.98;;;;;;;8.19;92.77;101096.78;5010756;28;20845;-81
2022/02/02 21:17:47;;;;;;;23.88;19.73;;;;;;;8.20;92.66;101093.00;5011799;28;21127;-81
2022/02/02 21:20:22;;;;;;;22.70;19.57;;;;;;;8.17;92.88;101096.16;5014527;28;20412;-81
2022/02/02 21:22:51;;;;;;;27.13;19.83;;;;;;;8.14;93.01;101096.56;5017230;28;20400;-81
2022/02/02 21:25:34;;;;;;;23.50;19.50;;;;;;;8.14;93.33;101101.16;5020454;28;20420;-81
2022/02/02 21:28:01;;;;;;;25.95;19.80;;;;;;;8.15;92.90;101094.72;5020104;28;20490;-82
2022/02/02 21:30:29;;;;;;;25.50;19.27;;;;;;;8.13;93.04;101094.94;5017581;28;20774;-86
2022/02/02 21:32:55;;;;;;;23.40;18.92;;;;;;;8.13;92.78;101097.63;5019442;28;20423;-81
2022/02/02 21:35:21;;;;;;;21.83;16.45;;;;;;;8.12;92.80;101090.56;5019000;28;20406;-82
2022/02/02 21:37:49;;;;;;;20.63;16.55;;;;;;;8.13;93.03;101092.25;5025016;28;20408;-81
2022/02/02 21:42:47;;;;;;;23.33;17.63;;;;;;;8.11;93.07;101093.47;5016613;28;21318;-81
2022/02/02 21:45:13;;;;;;;24.33;17.98;;;;;;;8.14;93.42;101095.75;5011903;28;20551;-81
2022/02/02 21:47:39;;;;;;;26.08;17.65;;;;;;;8.14;92.86;101093.88;5016519;28;20422;-81
2022/02/02 21:50:10;;;;;;;24.95;18.38;;;;;;;8.12;93.03;101092.44;5022802;28;20428;-81
2022/02/02 21:52:36;;;;;;;26.90;18.50;;;;;;;8.12;93.19;101092.44;5016637;28;20426;-81
2022/02/02 21:55:03;;;;;;;24.73;17.45;;;;;;;8.14;92.65;101093.03;5034823;28;20434;-81
2022/02/02 21:57:28;;;;;;;22.35;16.05;;;;;;;8.14;93.10;101099.28;5023907;28;20407;-81
2022/02/02 21:59:53;;;;;;;26.67;18.17;;;;;;;8.16;92.90;101102.63;5020704;28;20479;-81
2022/02/02 22:02:19;;;;;;;20.97;17.13;;;;;;;8.16;93.39;101099.91;5024270;28;20421;-81
2022/02/02 22:04:44;;;;;;;28.27;18.30;;;;;;;8.17;92.86;101101.53;5023435;28;20416;-81
2022/02/02 22:07:09;;;;;;;20.70;16.17;;;;;;;8.17;92.99;101111.50;5022233;28;20413;-81
2022/02/02 22:09:35;;;;;;;25.27;17.40;;;;;;;8.17;93.43;101100.72;5025366;28;20904;-81
2022/02/02 22:12:00;;;;;;;21.17;16.73;;;;;;;8.17;93.17;101108.81;5023741;28;20433;-82
2022/02/02 22:14:26;;;;;;;24.63;17.50;;;;;;;8.15;93.09;101113.59;5010610;28;20431;-81
2022/02/02 22:16:53;;;;;;;26.65;17.77;;;;;;;8.14;93.51;101122.75;5013548;28;20423;-81
2022/02/02 22:19:18;;;;;;;27.42;18.13;;;;;;;8.13;93.12;101113.00;5014692;28;20422;-82